地図

経路データ

SID SEASON NUMBER BASIN SUBBASIN NAME ISO_TIME NATURE LAT LON WMO_WIND WMO_PRES WMO_AGENCY TRACK_TYPE DIST2LAND LANDFALL IFLAG USA_AGENCY USA_ATCF_ID USA_LAT USA_LON USA_RECORD USA_STATUS USA_WIND USA_PRES USA_SSHS USA_R34_NE USA_R34_SE USA_R34_SW USA_R34_NW USA_R50_NE USA_R50_SE USA_R50_SW USA_R50_NW USA_R64_NE USA_R64_SE USA_R64_SW USA_R64_NW USA_POCI USA_ROCI USA_RMW USA_EYE TOKYO_LAT TOKYO_LON TOKYO_GRADE TOKYO_WIND TOKYO_PRES TOKYO_R50_DIR TOKYO_R50_LONG TOKYO_R50_SHORT TOKYO_R30_DIR TOKYO_R30_LONG TOKYO_R30_SHORT TOKYO_LAND CMA_LAT CMA_LON CMA_CAT CMA_WIND CMA_PRES HKO_LAT HKO_LON HKO_CAT HKO_WIND HKO_PRES NEWDELHI_LAT NEWDELHI_LON NEWDELHI_GRADE NEWDELHI_WIND NEWDELHI_PRES NEWDELHI_CI NEWDELHI_DP NEWDELHI_POCI REUNION_LAT REUNION_LON REUNION_TYPE REUNION_WIND REUNION_PRES REUNION_TNUM REUNION_CI REUNION_RMW REUNION_R34_NE REUNION_R34_SE REUNION_R34_SW REUNION_R34_NW REUNION_R50_NE REUNION_R50_SE REUNION_R50_SW REUNION_R50_NW REUNION_R64_NE REUNION_R64_SE REUNION_R64_SW REUNION_R64_NW BOM_LAT BOM_LON BOM_TYPE BOM_WIND BOM_PRES BOM_TNUM BOM_CI BOM_RMW BOM_R34_NE BOM_R34_SE BOM_R34_SW BOM_R34_NW BOM_R50_NE BOM_R50_SE BOM_R50_SW BOM_R50_NW BOM_R64_NE BOM_R64_SE BOM_R64_SW BOM_R64_NW BOM_ROCI BOM_POCI BOM_EYE BOM_POS_METHOD BOM_PRES_METHOD NADI_LAT NADI_LON NADI_CAT NADI_WIND NADI_PRES WELLINGTON_LAT WELLINGTON_LON WELLINGTON_WIND WELLINGTON_PRES DS824_LAT DS824_LON DS824_STAGE DS824_WIND DS824_PRES TD9636_LAT TD9636_LON TD9636_STAGE TD9636_WIND TD9636_PRES TD9635_LAT TD9635_LON TD9635_WIND TD9635_PRES TD9635_ROCI NEUMANN_LAT NEUMANN_LON NEUMANN_CLASS NEUMANN_WIND NEUMANN_PRES MLC_LAT MLC_LON MLC_CLASS MLC_WIND MLC_PRES USA_GUST BOM_GUST BOM_GUST_PER REUNION_GUST REUNION_GUST_PER USA_SEAHGT USA_SEARAD_NE USA_SEARAD_SE USA_SEARAD_SW USA_SEARAD_NW STORM_SPEED STORM_DIR
2022250N19137 2022 58 WP MM MUIFA 2022-09-06 18:00:00 NR 18.6000 136.500 PROVISIONAL 1379 1302 O_____________ tcvitals WP142022 18.6000 136.500 29 1004 -1 1007 160 30 14 236
2022250N19137 2022 58 WP MM MUIFA 2022-09-06 21:00:00 NR 18.2205 135.904 PROVISIONAL 1302 1234 P_____________ WP142022 18.2205 135.904 32 1003 -1 1007 160 32 13 233
2022250N19137 2022 58 WP MM MUIFA 2022-09-07 00:00:00 NR 17.8000 135.400 PROVISIONAL 1234 1184 O_____________ tcvitals WP142022 17.8000 135.400 35 1002 0 40 40 60 60 1007 160 35 12 223
2022250N19137 2022 58 WP MM MUIFA 2022-09-07 03:00:00 NR 17.3398 135.048 PROVISIONAL 1170 1135 P_____________ WP142022 17.3398 135.048 40 1000 0 37 40 72 80 1007 147 32 10 216
2022250N19137 2022 58 WP MM MUIFA 2022-09-07 06:00:00 NR 17.0000 134.800 PROVISIONAL 1135 1111 O_____________ tcvitals WP142022 17.0000 134.800 45 998 0 35 40 85 100 1007 135 30 6 225
2022250N19137 2022 58 WP MM MUIFA 2022-09-07 09:00:00 NR 16.9173 134.608 PROVISIONAL 1111 1098 P_____________ WP142022 16.9173 134.608 45 996 0 37 45 92 110 1008 142 30 4 270
2022250N19137 2022 58 WP MM MUIFA 2022-09-07 12:00:00 NR 17.0000 134.400 PROVISIONAL 1098 1075 O_____________ tcvitals WP142022 17.0000 134.400 45 995 0 40 50 100 120 1009 150 30 6 296
2022250N19137 2022 58 WP MM MUIFA 2022-09-07 15:00:00 NR 17.1650 134.073 PROVISIONAL 1081 1050 P_____________ WP142022 17.1650 134.073 45 995 0 40 50 100 120 1008 150 30 7 294
2022250N19137 2022 58 WP MM MUIFA 2022-09-07 18:00:00 NR 17.3000 133.700 PROVISIONAL 1050 1017 O_____________ tcvitals WP142022 17.3000 133.700 45 995 0 40 50 100 120 1007 150 30 7 274
2022250N19137 2022 58 WP MM MUIFA 2022-09-07 21:00:00 NR 17.2148 133.380 PROVISIONAL 1017 975 P_____________ WP142022 17.2148 133.380 42 998 0 40 55 92 100 1008 162 30 7 253
2022250N19137 2022 58 WP MM MUIFA 2022-09-08 00:00:00 NR 17.1000 133.000 PROVISIONAL 975 931 O_____________ tcvitals WP142022 17.1000 133.000 39 1002 0 40 60 85 80 1009 175 30 9 264
2022250N19137 2022 58 WP MM MUIFA 2022-09-08 03:00:00 NR 17.1276 132.473 PROVISIONAL 931 884 P_____________ WP142022 17.1276 132.473 39 1002 0 52 57 67 70 1009 175 30 11 275
2022250N19137 2022 58 WP MM MUIFA 2022-09-08 06:00:00 NR 17.2000 131.900 PROVISIONAL 884 836 O_____________ tcvitals WP142022 17.2000 131.900 39 1002 0 65 55 50 60 1009 175 30 10 277
2022250N19137 2022 58 WP MM MUIFA 2022-09-08 09:00:00 NR 17.2499 131.385 PROVISIONAL 836 793 P_____________ WP142022 17.2499 131.385 42 1001 0 65 52 47 62 1009 175 32 10 276
2022250N19137 2022 58 WP MM MUIFA 2022-09-08 12:00:00 NR 17.3000 130.900 PROVISIONAL 793 746 O_____________ tcvitals WP142022 17.3000 130.900 45 1000 0 65 50 45 65 1009 175 35 9 273
2022250N19137 2022 58 WP MM MUIFA 2022-09-08 15:00:00 NR 17.3050 130.412 PROVISIONAL 746 716 P_____________ WP142022 17.3050 130.412 45 1000 0 50 37 40 52 1008 187 35 9 277
2022250N19137 2022 58 WP MM MUIFA 2022-09-08 18:00:00 NR 17.4000 130.000 PROVISIONAL 716 704 O_____________ tcvitals WP142022 17.4000 130.000 45 1000 0 35 25 35 40 1008 200 35 7 300
2022250N19137 2022 58 WP MM MUIFA 2022-09-08 21:00:00 NR 17.6747 129.742 PROVISIONAL 708 707 P_____________ WP142022 17.6747 129.742 49 998 0 47 40 47 52 1009 250 27 9 326
2022250N19137 2022 58 WP MM MUIFA 2022-09-09 00:00:00 NR 18.1000 129.500 PROVISIONAL 719 717 O_____________ tcvitals WP142022 18.1000 129.500 54 996 0 60 55 60 65 1010 300 20 11 329
2022250N19137 2022 58 WP MM MUIFA 2022-09-09 03:00:00 NR 18.6501 129.115 PROVISIONAL 717 678 P_____________ WP142022 18.6501 129.115 54 996 0 72 65 55 65 1010 300 20 13 325
2022250N19137 2022 58 WP MM MUIFA 2022-09-09 06:00:00 NR 19.2000 128.700 PROVISIONAL 679 655 O_____________ tcvitals WP142022 19.2000 128.700 54 996 0 85 75 50 65 1010 300 20 12 324
2022250N19137 2022 58 WP MM MUIFA 2022-09-09 09:00:00 NR 19.6171 128.380 PROVISIONAL 655 621 P_____________ WP142022 19.6171 128.380 57 994 0 77 72 52 67 1010 300 20 10 317
2022250N19137 2022 58 WP MM MUIFA 2022-09-09 12:00:00 NR 19.9000 128.000 PROVISIONAL 621 564 O_____________ tcvitals WP142022 19.9000 128.000 60 993 0 70 70 55 70 1010 300 20 10 293
2022250N19137 2022 58 WP MM MUIFA 2022-09-09 15:00:00 NR 20.0154 127.400 PROVISIONAL 564 509 P_____________ WP142022 20.0154 127.400 62 992 0 70 70 55 62 1009 300 20 11 280
2022250N19137 2022 58 WP MM MUIFA 2022-09-09 18:00:00 NR 20.1000 126.800 PROVISIONAL 509 479 O_____________ tcvitals WP142022 20.1000 126.800 64 991 1 70 70 55 55 1009 300 20 10 289
2022250N19137 2022 58 WP MM MUIFA 2022-09-09 21:00:00 NR 20.3347 126.398 PROVISIONAL 479 468 P_____________ WP142022 20.3347 126.398 67 989 1 77 72 57 67 1009 290 20 8 307
2022250N19137 2022 58 WP MM MUIFA 2022-09-10 00:00:00 NR 20.6000 126.100 PROVISIONAL 468 454 O_____________ tcvitals WP142022 20.6000 126.100 70 988 1 85 75 60 80 1009 280 20 7 309
2022250N19137 2022 58 WP MM MUIFA 2022-09-10 03:00:00 NR 20.7850 125.797 PROVISIONAL 454 444 P_____________ WP142022 20.7850 125.797 75 983 1 77 77 65 85 1009 280 17 6 311
2022250N19137 2022 58 WP MM MUIFA 2022-09-10 06:00:00 NR 21.0000 125.600 PROVISIONAL 451 451 O_____________ tcvitals WP142022 21.0000 125.600 80 978 1 70 80 70 90 1009 280 14 6 343
2022250N19137 2022 58 WP MM MUIFA 2022-09-10 09:00:00 NR 21.3424 125.607 PROVISIONAL 473 459 P_____________ WP142022 21.3424 125.607 82 974 1 72 80 80 95 1009 275 14 7 0
2022250N19137 2022 58 WP MM MUIFA 2022-09-10 12:00:00 NR 21.7000 125.600 PROVISIONAL 459 428 O_____________ tcvitals WP142022 21.7000 125.600 84 970 2 75 80 90 100 1009 270 14 7 338
2022250N19137 2022 58 WP MM MUIFA 2022-09-10 15:00:00 NR 21.9726 125.338 PROVISIONAL 418 382 P_____________ WP142022 21.9726 125.338 91 963 2 95 90 90 100 1008 260 9 8 312
2022250N19137 2022 58 WP MM MUIFA 2022-09-10 18:00:00 NR 22.2000 125.000 PROVISIONAL 382 347 O_____________ tcvitals WP142022 22.2000 125.000 99 957 3 115 100 90 100 1007 250 5 7 308
2022250N19137 2022 58 WP MM MUIFA 2022-09-10 21:00:00 NR 22.4150 124.720 PROVISIONAL 347 322 P_____________ WP142022 22.4150 124.720 104 952 3 97 92 100 97 1007 250 9 6 311
2022250N19137 2022 58 WP MM MUIFA 2022-09-11 00:00:00 NR 22.6000 124.500 PROVISIONAL 322 310 O_____________ tcvitals WP142022 22.6000 124.500 109 948 3 80 85 110 95 1007 250 14 5 315
2022250N19137 2022 58 WP MM MUIFA 2022-09-11 03:00:00 NR 22.7499 124.362 PROVISIONAL 310 297 P_____________ WP142022 22.7499 124.362 112 945 3 100 97 107 105 1007 255 14 4 329
2022250N19137 2022 58 WP MM MUIFA 2022-09-11 06:00:00 NR 22.9000 124.300 PROVISIONAL 297 289 O_____________ tcvitals WP142022 22.9000 124.300 115 942 4 120 110 105 115 1007 260 14 3 348
2022250N19137 2022 58 WP MM MUIFA 2022-09-11 09:00:00 NR 23.0850 124.285 PROVISIONAL 289 278 P_____________ WP142022 23.0850 124.285 110 945 3 130 125 115 125 1007 252 14 4 0
2022250N19137 2022 58 WP MM MUIFA 2022-09-11 12:00:00 NR 23.3000 124.300 PROVISIONAL 278 268 O_____________ tcvitals WP142022 23.3000 124.300 105 949 3 140 140 126 135 1007 245 14 5 0
2022250N19137 2022 58 WP MM MUIFA 2022-09-11 15:00:00 NR 23.5500 124.307 PROVISIONAL 263 255 P_____________ WP142022 23.5500 124.307 99 954 3 115 115 113 122 1007 245 14 5 2
2022250N19137 2022 58 WP MM MUIFA 2022-09-11 18:00:00 NR 23.8000 124.300 PROVISIONAL 255 249 O_____________ tcvitals WP142022 23.8000 124.300 93 959 2 90 90 100 110 1007 245 14 4 355
2022250N19137 2022 58 WP MM MUIFA 2022-09-11 21:00:00 NR 23.9925 124.257 PROVISIONAL 249 235 P_____________ WP142022 23.9925 124.257 88 962 2 92 92 105 110 1007 245 22 4 348
2022250N19137 2022 58 WP MM MUIFA 2022-09-12 00:00:00 NR 24.2000 124.200 PROVISIONAL 235 228 O_____________ tcvitals WP142022 24.2000 124.200 84 966 2 95 95 110 110 1007 245 30 5 350
2022250N19137 2022 58 WP MM MUIFA 2022-09-12 03:00:00 NR 24.5150 124.150 PROVISIONAL 228 212 P_____________ WP142022 24.5150 124.150 82 967 1 87 95 100 92 1007 242 31 6 352
2022250N19137 2022 58 WP MM MUIFA 2022-09-12 06:00:00 NR 24.8000 124.100 PROVISIONAL 212 201 O_____________ tcvitals WP142022 24.8000 124.100 80 968 1 80 95 90 75 1007 240 32 4 347
2022250N19137 2022 58 WP MM MUIFA 2022-09-12 09:00:00 NR 24.9300 124.042 PROVISIONAL 201 201 P_____________ WP142022 24.9300 124.042 82 967 1 82 95 90 72 1007 240 32 2 335
2022250N19137 2022 58 WP MM MUIFA 2022-09-12 12:00:00 NR 25.0000 124.000 PROVISIONAL 201 201 O_____________ tcvitals WP142022 25.0000 124.000 84 966 2 85 95 90 70 1007 240 32 2 339
2022250N19137 2022 58 WP MM MUIFA 2022-09-12 15:00:00 NR 25.0775 123.978 PROVISIONAL 201 201 P_____________ WP142022 25.0775 123.978 84 964 2 85 95 90 70 1005 240 32 2 8
2022250N19137 2022 58 WP MM MUIFA 2022-09-12 18:00:00 NR 25.2000 124.000 PROVISIONAL 202 202 O_____________ tcvitals WP142022 25.2000 124.000 84 963 2 85 95 90 70 1003 240 32 4 19
2022250N19137 2022 58 WP MM MUIFA 2022-09-12 21:00:00 NR 25.4350 124.107 PROVISIONAL 215 215 P_____________ WP142022 25.4350 124.107 86 959 2 97 100 97 90 1003 230 26 5 20
2022250N19137 2022 58 WP MM MUIFA 2022-09-13 00:00:00 NR 25.7000 124.200 PROVISIONAL 234 234 O_____________ tcvitals WP142022 25.7000 124.200 89 956 2 110 105 105 110 1003 220 20 5 8
2022250N19137 2022 58 WP MM MUIFA 2022-09-13 03:00:00 NR 25.8850 124.180 PROVISIONAL 242 238 P_____________ WP142022 25.8850 124.180 89 956 2 107 105 105 110 1003 220 20 4 348
2022250N19137 2022 58 WP MM MUIFA 2022-09-13 06:00:00 NR 26.1000 124.100 PROVISIONAL 243 243 O_____________ tcvitals WP142022 26.1000 124.100 89 956 2 105 105 105 110 1003 220 20 6 345
2022250N19137 2022 58 WP MM MUIFA 2022-09-13 09:00:00 NR 26.4425 124.015 PROVISIONAL 254 254 P_____________ WP142022 26.4425 124.015 89 955 2 117 117 117 118 1003 220 17 7 346
2022250N19137 2022 58 WP MM MUIFA 2022-09-13 12:00:00 NR 26.8000 123.900 PROVISIONAL 276 260 O_____________ tcvitals WP142022 26.8000 123.900 89 955 2 130 130 130 126 1003 220 14 7 339
2022250N19137 2022 58 WP MM MUIFA 2022-09-13 15:00:00 NR 27.0500 123.757 PROVISIONAL 254 226 P_____________ WP142022 27.0500 123.757 86 957 2 117 117 117 118 1003 220 14 6 332
2022250N19137 2022 58 WP MM MUIFA 2022-09-13 18:00:00 NR 27.3000 123.600 PROVISIONAL 226 202 O_____________ tcvitals WP142022 27.3000 123.600 84 959 2 105 105 105 110 1003 220 14 6 335
2022250N19137 2022 58 WP MM MUIFA 2022-09-13 21:00:00 NR 27.6350 123.457 PROVISIONAL 202 169 P_____________ WP142022 27.6350 123.457 84 960 2 115 115 110 112 1004 210 20 8 339
2022250N19137 2022 58 WP MM MUIFA 2022-09-14 00:00:00 NR 28.0000 123.300 PROVISIONAL 169 143 O_____________ tcvitals WP142022 28.0000 123.300 84 962 2 126 126 115 115 1005 200 27 7 336
2022250N19137 2022 58 WP MM MUIFA 2022-09-14 03:00:00 NR 28.3125 123.115 PROVISIONAL 143 103 P_____________ WP142022 28.3125 123.115 84 962 2 123 120 115 112 1005 200 27 8 333
2022250N19137 2022 58 WP MM MUIFA 2022-09-14 06:00:00 NR 28.7000 122.900 PROVISIONAL 103 67 O_____________ tcvitals WP142022 28.7000 122.900 84 962 2 120 115 115 110 1005 200 27 10 337
2022250N19137 2022 58 WP MM MUIFA 2022-09-14 09:00:00 NR 29.2550 122.665 PROVISIONAL 68 48 P_____________ WP142022 29.2550 122.665 82 963 1 130 127 117 122 1004 177 27 13 340
2022250N19137 2022 58 WP MM MUIFA 2022-09-14 12:00:00 NR 29.9000 122.400 PROVISIONAL 49 44 O_____________ tcvitals WP142022 29.9000 122.400 80 965 1 140 140 120 135 1004 155 27 14 340
2022250N19137 2022 58 WP MM MUIFA 2022-09-14 15:00:00 NR 30.5199 122.122 PROVISIONAL 48 0 P_____________ WP142022 30.5199 122.122 75 970 1 115 110 90 107 1004 165 26 14 338
2022250N19137 2022 58 WP MM MUIFA 2022-09-14 18:00:00 NR 31.2000 121.800 PROVISIONAL 9 0 O_____________ tcvitals WP142022 31.2000 121.800 70 975 1 90 80 60 80 1005 175 25 16 338
2022250N19137 2022 58 WP MM MUIFA 2022-09-14 21:00:00 NR 32.0075 121.415 PROVISIONAL 0 0 P_____________ WP142022 32.0075 121.415 65 976 1 90 85 67 80 1003 152 25 17 337
2022250N19137 2022 58 WP MM MUIFA 2022-09-15 00:00:00 NR 32.8000 121.000 PROVISIONAL 14 0 O_____________ tcvitals WP142022 32.8000 121.000 60 978 0 90 90 75 80 1002 130 25 16 332
2022250N19137 2022 58 WP MM MUIFA 2022-09-15 03:00:00 NR 33.4302 120.533 PROVISIONAL 0 0 P_____________ WP142022 33.4302 120.533 52 985 0 72 62 45 1002 130 22 14 331
2022250N19137 2022 58 WP MM MUIFA 2022-09-15 06:00:00 NR 34.0000 120.200 PROVISIONAL 0 0 O_____________ tcvitals WP142022 34.0000 120.200 45 992 0 55 35 11 1002 130 20 12 345
2022250N19137 2022 58 WP MM MUIFA 2022-09-15 09:00:00 NR 34.5923 120.167 PROVISIONAL 24 24 P_____________ WP142022 34.5923 120.167 42 993 0 72 50 18 1002 125 20 12 4
2022250N19137 2022 58 WP MM MUIFA 2022-09-15 12:00:00 NR 35.2000 120.300 PROVISIONAL 57 24 O_____________ tcvitals WP142022 35.2000 120.300 39 995 0 90 65 11 25 1002 120 20 13 9
2022250N19137 2022 58 WP MM MUIFA 2022-09-15 15:00:00 NR 35.8424 120.406 PROVISIONAL 24 0 P_____________ WP142022 35.8424 120.406 37 995 0 90 77 42 1004 180 30 13 11
2022250N19137 2022 58 WP MM MUIFA 2022-09-15 18:00:00 NR 36.5000 120.600 PROVISIONAL 0 0 O_____________ tcvitals WP142022 36.5000 120.600 35 995 0 90 90 60 1006 240 40 14 17
2022250N19137 2022 58 WP MM MUIFA 2022-09-15 21:00:00 NR 37.1529 120.913 PROVISIONAL 0 0 P_____________ WP142022 37.1529 120.913 35 995 0 90 90 60 1006 240 40 14 23
2022250N19137 2022 58 WP MM MUIFA 2022-09-16 00:00:00 NR 37.8000 121.300 PROVISIONAL 28 O_____________ tcvitals WP142022 37.8000 121.300 35 996 0 90 90 60 1006 240 40 14 25

デジタル台風データ・検索

IBTrACS Databaseについて

本データベースは、米国NOAAが公開する1842年以降の世界の熱帯低気圧のベストトラックデータアーカイブInternational Best Track Archive for Climate Stewardship (IBTrACS)を、ウェブで閲覧しやすい形式に変換したものです。

最終更新日:2022-09-23